createdAt,value
2022-10-13T00:01:59.410Z,2.17
2022-10-13T00:05:02.450Z,2.87
2022-10-13T00:08:05.772Z,1.90
2022-10-13T00:11:14.025Z,2.10
2022-10-13T00:14:16.977Z,2.30
2022-10-13T00:17:21.267Z,2.37
2022-10-13T00:20:24.345Z,1.80
2022-10-13T00:23:27.444Z,2.30
2022-10-13T00:26:30.423Z,2.63
2022-10-13T00:29:33.388Z,2.40
2022-10-13T00:32:37.715Z,2.30
2022-10-13T00:35:45.202Z,2.10
2022-10-13T00:38:48.315Z,1.80
2022-10-13T00:41:51.270Z,2.23
2022-10-13T00:45:04.314Z,2.47
2022-10-13T00:48:08.767Z,2.10
2022-10-13T00:51:12.367Z,2.00
2022-10-13T00:54:17.757Z,1.93
2022-10-13T00:57:21.474Z,2.37
2022-10-13T01:00:25.217Z,2.93
2022-10-13T01:03:29.738Z,2.40
2022-10-13T01:06:32.779Z,2.10
2022-10-13T01:09:37.753Z,2.30
2022-10-13T01:12:50.454Z,2.00
2022-10-13T01:16:00.581Z,2.60
2022-10-13T01:19:21.745Z,2.50
2022-10-13T01:22:47.022Z,2.40
2022-10-13T01:26:09.970Z,1.87
2022-10-13T01:29:37.908Z,2.40
2022-10-13T01:33:08.139Z,1.90
2022-10-13T01:36:19.559Z,2.27
2022-10-13T01:39:27.759Z,2.13
2022-10-13T01:42:37.002Z,2.47
2022-10-13T01:45:45.422Z,2.20
2022-10-13T01:48:52.870Z,2.57
2022-10-13T01:52:01.065Z,2.40
2022-10-13T01:55:07.444Z,2.20
2022-10-13T01:58:12.336Z,2.50
2022-10-13T02:01:27.938Z,2.13
2022-10-13T02:04:43.037Z,2.50
2022-10-13T02:07:50.177Z,2.30
2022-10-13T02:10:59.681Z,2.00
2022-10-13T02:14:08.474Z,2.00
2022-10-13T02:17:12.026Z,2.30
2022-10-13T02:20:17.743Z,2.40
2022-10-13T02:23:21.023Z,2.10
2022-10-13T02:26:24.260Z,2.33
2022-10-13T02:29:27.289Z,2.33
2022-10-13T02:32:30.352Z,2.60
2022-10-13T02:35:35.166Z,2.50
2022-10-13T02:38:38.162Z,2.47
2022-10-13T02:41:41.195Z,2.40
2022-10-13T02:44:44.176Z,2.33
2022-10-13T02:47:47.431Z,2.10
2022-10-13T02:50:51.703Z,2.57
2022-10-13T02:53:54.653Z,2.10
2022-10-13T02:56:57.582Z,2.43
2022-10-13T03:00:00.722Z,1.73
2022-10-13T03:03:03.698Z,2.23
2022-10-13T03:06:09.297Z,2.20
2022-10-13T03:09:12.241Z,2.30
2022-10-13T03:12:15.250Z,2.77
2022-10-13T03:15:18.343Z,2.33
2022-10-13T03:18:21.347Z,2.50
2022-10-13T03:21:25.648Z,2.43
2022-10-13T03:24:28.648Z,2.60
2022-10-13T03:27:31.593Z,2.27
2022-10-13T03:30:34.541Z,2.90
2022-10-13T03:33:37.504Z,2.37
2022-10-13T03:36:41.781Z,3.37
2022-10-13T03:39:44.877Z,2.40
2022-10-13T03:42:47.828Z,2.50
2022-10-13T03:45:56.468Z,2.43
2022-10-13T03:48:59.406Z,2.70
2022-10-13T03:52:03.694Z,2.50
2022-10-13T03:55:07.486Z,2.80
2022-10-13T03:58:10.417Z,3.30
2022-10-13T04:01:14.957Z,3.13
2022-10-13T04:04:17.918Z,3.03
2022-10-13T04:07:22.274Z,2.70
2022-10-13T04:10:25.207Z,2.67
2022-10-13T04:13:28.213Z,2.93
2022-10-13T04:16:32.337Z,2.80
2022-10-13T04:19:35.320Z,2.60
2022-10-13T04:22:39.692Z,2.83
2022-10-13T04:25:42.655Z,2.77
2022-10-13T04:28:45.878Z,2.40
2022-10-13T04:31:48.869Z,2.63
2022-10-13T04:34:52.113Z,3.23
2022-10-13T04:37:57.450Z,2.90
2022-10-13T04:41:02.812Z,2.70
2022-10-13T04:44:05.797Z,2.40
2022-10-13T04:47:09.122Z,2.93
2022-10-13T04:50:12.091Z,2.97
2022-10-13T04:53:19.196Z,2.93
2022-10-13T04:56:22.396Z,2.90
2022-10-13T04:59:25.373Z,2.87
2022-10-13T05:02:29.007Z,3.30
2022-10-13T05:05:31.972Z,3.10
2022-10-13T05:08:37.402Z,3.20
2022-10-13T05:11:40.325Z,2.77
2022-10-13T05:14:43.291Z,3.00
2022-10-13T05:17:46.239Z,3.30
2022-10-13T05:20:49.178Z,2.90
2022-10-13T05:23:57.908Z,3.07
2022-10-13T05:27:00.833Z,3.17
2022-10-13T05:30:03.821Z,3.47
2022-10-13T05:33:06.765Z,3.47
2022-10-13T05:36:12.506Z,3.23
2022-10-13T05:39:16.829Z,3.10
2022-10-13T05:42:19.973Z,2.93
2022-10-13T05:45:24.366Z,2.97
2022-10-13T05:48:28.210Z,3.63
2022-10-13T05:51:34.159Z,3.30
2022-10-13T05:54:42.453Z,3.00
2022-10-13T05:57:49.321Z,3.90
2022-10-13T06:00:55.030Z,3.87
2022-10-13T06:04:02.177Z,2.90
2022-10-13T06:07:05.579Z,3.37
2022-10-13T06:10:11.269Z,3.67
2022-10-13T06:13:14.251Z,3.00
2022-10-13T06:16:17.191Z,3.60
2022-10-13T06:19:20.146Z,3.50
2022-10-13T06:22:23.304Z,3.10
2022-10-13T06:25:29.061Z,4.10
2022-10-13T06:28:32.099Z,3.93
2022-10-13T06:31:35.137Z,3.87
2022-10-13T06:34:38.091Z,3.67
2022-10-13T06:37:41.122Z,3.33
2022-10-13T06:40:45.455Z,3.80
2022-10-13T06:43:48.413Z,3.73
2022-10-13T06:46:51.335Z,3.63
2022-10-13T06:49:54.335Z,3.63
2022-10-13T06:52:57.902Z,3.70
2022-10-13T06:56:04.980Z,4.20
2022-10-13T06:59:08.036Z,3.77
2022-10-13T07:02:11.842Z,4.63
2022-10-13T07:05:14.867Z,4.17
2022-10-13T07:08:17.914Z,4.20
2022-10-13T07:11:22.239Z,4.17
2022-10-13T07:14:25.263Z,4.57
2022-10-13T07:17:28.423Z,3.80
2022-10-13T07:20:31.442Z,3.83
2022-10-13T07:23:34.769Z,4.00
2022-10-13T07:26:39.099Z,4.17
2022-10-13T07:29:42.084Z,4.27
2022-10-13T07:32:45.055Z,4.20
2022-10-13T07:35:48.213Z,3.67
2022-10-13T07:38:51.223Z,4.53
2022-10-13T07:41:55.534Z,3.83
2022-10-13T07:44:58.558Z,4.80
2022-10-13T07:48:01.503Z,4.53
2022-10-13T07:51:06.081Z,4.43
2022-10-13T07:54:09.085Z,5.23
2022-10-13T07:57:13.439Z,4.73
2022-10-13T08:00:16.806Z,4.30
2022-10-13T08:03:19.762Z,4.80
2022-10-13T08:06:22.722Z,5.37
2022-10-13T08:09:26.038Z,5.60
2022-10-13T08:12:30.352Z,4.50
2022-10-13T08:15:33.431Z,5.00
2022-10-13T08:18:36.441Z,5.00
2022-10-13T08:21:57.486Z,5.53
2022-10-13T08:25:02.085Z,4.83
2022-10-13T08:28:07.227Z,4.93
2022-10-13T08:31:10.342Z,5.07
2022-10-13T08:34:13.743Z,5.10
2022-10-13T08:37:18.077Z,4.90
2022-10-13T08:40:23.222Z,5.53
2022-10-13T08:43:28.072Z,5.47
2022-10-13T08:46:38.815Z,5.30
2022-10-13T08:49:43.479Z,5.50
2022-10-13T08:52:50.223Z,5.10
2022-10-13T08:55:57.771Z,5.03
2022-10-13T08:59:04.538Z,5.70
2022-10-13T09:02:14.827Z,5.20
2022-10-13T09:05:29.718Z,5.13
2022-10-13T09:08:40.240Z,5.53
2022-10-13T09:11:44.840Z,5.50
2022-10-13T09:14:59.299Z,5.87
2022-10-13T09:18:13.858Z,5.50
2022-10-13T09:21:21.986Z,6.03
2022-10-13T09:24:26.932Z,5.57
2022-10-13T09:27:29.936Z,5.70
2022-10-13T09:30:37.043Z,5.13
2022-10-13T09:33:40.187Z,5.70
2022-10-13T09:36:57.290Z,5.47
2022-10-13T09:40:14.006Z,5.47
2022-10-13T09:43:28.535Z,5.27
2022-10-13T09:46:36.510Z,6.20
2022-10-13T09:49:42.384Z,5.87
2022-10-13T09:52:46.810Z,5.87
2022-10-13T09:55:49.908Z,5.77
2022-10-13T09:59:00.491Z,6.07
2022-10-13T10:02:23.724Z,5.77
2022-10-13T10:05:39.145Z,6.57
2022-10-13T10:09:02.723Z,6.33
2022-10-13T10:12:07.239Z,6.00
2022-10-13T10:15:21.125Z,5.87
2022-10-13T10:18:34.827Z,5.23
2022-10-13T10:21:41.763Z,6.00
2022-10-13T10:24:51.238Z,6.07
2022-10-13T10:28:10.185Z,6.33
2022-10-13T10:31:31.110Z,5.60
2022-10-13T10:34:44.803Z,6.87
2022-10-13T10:37:58.897Z,7.03
2022-10-13T10:41:12.001Z,6.57
2022-10-13T10:44:18.167Z,6.43
2022-10-13T10:47:26.025Z,6.07
2022-10-13T10:50:31.975Z,6.63
2022-10-13T10:53:41.617Z,6.40
2022-10-13T10:56:50.056Z,6.87
2022-10-13T11:00:01.717Z,6.30
2022-10-13T11:03:11.586Z,6.60
2022-10-13T11:06:27.169Z,6.70
2022-10-13T11:10:01.997Z,5.70
2022-10-13T11:13:18.083Z,6.20
2022-10-13T11:16:29.301Z,5.80
2022-10-13T11:19:34.338Z,6.43
2022-10-13T11:22:38.669Z,5.43
2022-10-13T11:25:43.389Z,5.67
2022-10-13T11:28:47.765Z,6.70
2022-10-13T11:31:55.804Z,5.63
2022-10-13T11:35:00.161Z,6.07
2022-10-13T11:38:25.119Z,6.27
2022-10-13T11:41:34.498Z,5.87
2022-10-13T11:44:46.451Z,5.50
2022-10-13T11:48:31.017Z,6.00
2022-10-13T11:51:43.896Z,5.30
2022-10-13T11:54:54.950Z,5.13
2022-10-13T11:58:09.895Z,5.63
2022-10-13T12:01:14.619Z,4.73
2022-10-13T12:04:21.731Z,5.60
2022-10-13T12:07:25.975Z,5.47
2022-10-13T12:10:33.426Z,5.27
2022-10-13T12:13:37.949Z,4.87
2022-10-13T12:16:53.593Z,4.57
2022-10-13T12:19:58.760Z,4.60
2022-10-13T12:23:01.783Z,5.30
2022-10-13T12:26:06.715Z,4.93
2022-10-13T12:29:14.099Z,5.30
2022-10-13T12:32:21.618Z,4.40
2022-10-13T12:35:26.916Z,4.70
2022-10-13T12:38:30.123Z,4.43
2022-10-13T12:41:37.547Z,4.40
2022-10-13T12:44:41.032Z,4.60
2022-10-13T12:47:50.068Z,5.30
2022-10-13T12:50:54.127Z,4.80
2022-10-13T12:53:57.690Z,6.20
2022-10-13T12:57:06.257Z,6.00
2022-10-13T13:00:22.369Z,6.30
2022-10-13T13:03:28.847Z,4.97
2022-10-13T13:06:34.868Z,4.97
2022-10-13T13:09:38.935Z,5.97
2022-10-13T13:12:44.468Z,6.30
2022-10-13T13:15:47.455Z,7.30
2022-10-13T13:18:51.688Z,5.40
2022-10-13T13:21:54.698Z,5.47
2022-10-13T13:24:57.650Z,5.33
2022-10-13T13:28:05.194Z,5.60
2022-10-13T13:31:11.615Z,5.40
2022-10-13T13:34:14.586Z,5.43
2022-10-13T13:37:30.627Z,5.47
2022-10-13T13:40:33.631Z,5.27
2022-10-13T13:43:38.102Z,5.43
2022-10-13T13:46:42.014Z,5.03
2022-10-13T13:49:45.316Z,5.50
2022-10-13T13:52:48.279Z,5.13
2022-10-13T13:55:51.799Z,5.07
2022-10-13T13:58:56.076Z,4.30
2022-10-13T14:01:59.103Z,5.00
2022-10-13T14:05:02.107Z,4.50
2022-10-13T14:08:05.064Z,4.40
2022-10-13T14:11:09.158Z,4.77
2022-10-13T14:14:13.452Z,5.03
2022-10-13T14:17:16.439Z,3.90
2022-10-13T14:20:19.532Z,5.27
2022-10-13T14:23:22.500Z,4.80
2022-10-13T14:26:25.532Z,4.43
2022-10-13T14:29:29.877Z,4.37
2022-10-13T14:32:32.881Z,4.23
2022-10-13T14:35:36.021Z,4.13
2022-10-13T14:38:38.979Z,4.57
2022-10-13T14:41:41.945Z,4.60
2022-10-13T14:44:46.259Z,4.33
2022-10-13T14:47:49.203Z,4.47
2022-10-13T14:50:52.201Z,4.17
2022-10-13T14:53:55.193Z,4.70
2022-10-13T14:57:00.467Z,4.73
2022-10-13T15:00:05.368Z,4.10
2022-10-13T15:03:08.376Z,3.70
2022-10-13T15:06:15.072Z,4.73
2022-10-13T15:09:18.051Z,3.93
2022-10-13T15:12:21.534Z,4.00
2022-10-13T15:15:26.150Z,3.80
2022-10-13T15:18:29.728Z,4.50
2022-10-13T15:21:32.774Z,3.77
2022-10-13T15:24:35.793Z,3.90
2022-10-13T15:27:42.152Z,3.60
2022-10-13T15:30:46.743Z,4.03
2022-10-13T15:33:51.785Z,4.43
2022-10-13T15:36:54.781Z,4.43
2022-10-13T15:39:57.850Z,3.77
2022-10-13T15:43:01.471Z,3.50
2022-10-13T15:46:07.422Z,3.77
2022-10-13T15:49:10.421Z,4.03
2022-10-13T15:52:13.539Z,4.20
2022-10-13T15:55:16.804Z,4.00
2022-10-13T15:58:20.477Z,3.53
2022-10-13T16:01:25.375Z,3.30
2022-10-13T16:04:29.757Z,4.00
2022-10-13T16:07:35.759Z,3.20
2022-10-13T16:10:40.927Z,3.40
2022-10-13T16:13:47.339Z,3.67
2022-10-13T16:16:51.649Z,3.30
2022-10-13T16:19:54.604Z,3.60
2022-10-13T16:22:57.658Z,3.50
2022-10-13T16:26:02.217Z,3.83
2022-10-13T16:29:05.251Z,2.97
2022-10-13T16:32:09.634Z,3.83
2022-10-13T16:35:12.700Z,2.90
2022-10-13T16:38:15.634Z,3.40
2022-10-13T16:41:19.714Z,3.60
2022-10-13T16:44:22.761Z,3.37
2022-10-13T16:47:27.112Z,3.07
2022-10-13T16:50:30.078Z,3.67
2022-10-13T16:53:33.449Z,3.20
2022-10-13T16:56:36.556Z,3.67
2022-10-13T16:59:39.531Z,3.40
2022-10-13T17:02:43.839Z,4.10
2022-10-13T17:05:46.826Z,3.63
2022-10-13T17:08:50.076Z,3.40
2022-10-13T17:11:53.060Z,3.57
2022-10-13T17:14:56.010Z,3.90
2022-10-13T17:18:00.341Z,3.90
2022-10-13T17:21:05.595Z,4.33
2022-10-13T17:24:08.797Z,4.03
2022-10-13T17:27:11.729Z,3.93
2022-10-13T17:30:14.774Z,4.13
2022-10-13T17:33:19.056Z,4.80
2022-10-13T17:36:24.057Z,5.20
2022-10-13T17:39:27.053Z,4.53
2022-10-13T17:42:30.034Z,4.93
2022-10-13T17:45:32.984Z,5.23
2022-10-13T17:48:37.332Z,5.57
2022-10-13T17:51:40.807Z,4.83
2022-10-13T17:54:43.998Z,5.23
2022-10-13T17:57:46.950Z,5.93
2022-10-13T18:01:11.914Z,6.87
2022-10-13T18:04:17.764Z,6.33
2022-10-13T18:07:21.056Z,7.47
2022-10-13T18:10:24.251Z,7.90
2022-10-13T18:13:27.256Z,7.13
2022-10-13T18:16:30.329Z,8.13
2022-10-13T18:19:39.929Z,7.17
2022-10-13T18:22:43.302Z,7.40
2022-10-13T18:25:46.340Z,8.53
2022-10-13T18:28:50.834Z,9.60
2022-10-13T18:31:56.147Z,8.03
2022-10-13T18:35:00.451Z,8.23
2022-10-13T18:38:03.396Z,8.57
2022-10-13T18:41:06.600Z,8.97
2022-10-13T18:44:09.875Z,8.80
2022-10-13T18:47:12.863Z,8.67
2022-10-13T18:50:17.393Z,9.20
2022-10-13T18:53:20.419Z,9.57
2022-10-13T18:56:24.684Z,8.63
2022-10-13T18:59:27.907Z,8.57
2022-10-13T19:02:30.874Z,8.47
2022-10-13T19:05:39.527Z,9.10
2022-10-13T19:08:43.704Z,8.70
2022-10-13T19:11:46.683Z,8.90
2022-10-13T19:14:49.664Z,9.53
2022-10-13T19:17:52.623Z,9.23
2022-10-13T19:20:57.047Z,9.60
2022-10-13T19:24:00.619Z,9.00
2022-10-13T19:27:03.723Z,9.83
2022-10-13T19:30:07.673Z,9.67
2022-10-13T19:33:13.511Z,9.20
2022-10-13T19:36:24.658Z,9.73
2022-10-13T19:39:27.809Z,10.03
2022-10-13T19:42:30.787Z,11.50
2022-10-13T19:45:33.761Z,9.87
2022-10-13T19:48:37.040Z,9.83
2022-10-13T19:51:42.597Z,9.50
2022-10-13T19:54:45.549Z,9.30
2022-10-13T19:57:48.875Z,9.60
2022-10-13T20:00:51.984Z,10.73
2022-10-13T20:03:55.591Z,9.90
2022-10-13T20:07:01.226Z,11.53
2022-10-13T20:10:04.530Z,10.87
2022-10-13T20:13:07.852Z,13.30
2022-10-13T20:16:13.968Z,11.20
2022-10-13T20:19:19.469Z,12.60
2022-10-13T20:22:23.880Z,12.37
2022-10-13T20:25:26.896Z,12.73
2022-10-13T20:28:30.100Z,13.13
2022-10-13T20:31:33.386Z,13.77
2022-10-13T20:34:36.368Z,13.00
2022-10-13T20:37:40.770Z,13.80
2022-10-13T20:40:43.771Z,13.40
2022-10-13T20:43:47.038Z,12.80
2022-10-13T20:46:49.998Z,13.50
2022-10-13T20:49:53.246Z,13.30
2022-10-13T20:52:57.710Z,12.60
2022-10-13T20:56:01.642Z,13.50
2022-10-13T20:59:06.344Z,12.83
2022-10-13T21:02:11.787Z,12.77
2022-10-13T21:05:15.000Z,13.83
2022-10-13T21:08:20.112Z,13.37
2022-10-13T21:11:24.773Z,13.83
2022-10-13T21:14:27.912Z,13.17
2022-10-13T21:17:30.917Z,13.40
2022-10-13T21:20:35.544Z,12.40
2022-10-13T21:23:39.952Z,13.33
2022-10-13T21:26:42.958Z,13.20
2022-10-13T21:29:45.932Z,12.80
2022-10-13T21:32:48.900Z,13.27
2022-10-13T21:35:51.871Z,12.77
2022-10-13T21:38:58.460Z,13.67
2022-10-13T21:42:01.413Z,12.47
2022-10-13T21:45:05.127Z,12.67
2022-10-13T21:48:08.328Z,13.20
2022-10-13T21:51:16.172Z,12.47
2022-10-13T21:54:20.489Z,12.70
2022-10-13T21:57:23.967Z,12.87
2022-10-13T22:00:27.943Z,12.40
2022-10-13T22:03:30.965Z,11.90
2022-10-13T22:06:34.587Z,12.00
2022-10-13T22:09:39.053Z,11.70
2022-10-13T22:12:42.147Z,12.37
2022-10-13T22:15:45.152Z,12.70
2022-10-13T22:18:48.602Z,13.00
2022-10-13T22:21:51.902Z,12.00
2022-10-13T22:24:56.347Z,12.60
2022-10-13T22:27:59.302Z,12.40
2022-10-13T22:31:05.490Z,11.93
2022-10-13T22:34:08.488Z,11.80
2022-10-13T22:37:11.466Z,11.83
2022-10-13T22:40:15.795Z,12.23
2022-10-13T22:43:18.792Z,11.73
2022-10-13T22:46:23.722Z,11.63
2022-10-13T22:49:26.746Z,13.30
2022-10-13T22:52:29.719Z,11.40
2022-10-13T22:55:34.103Z,12.00
2022-10-13T22:58:37.098Z,11.73
2022-10-13T23:01:40.117Z,12.43
2022-10-13T23:04:43.069Z,13.90
2022-10-13T23:07:46.030Z,12.33
2022-10-13T23:10:50.702Z,13.63
2022-10-13T23:13:53.666Z,13.73
2022-10-13T23:16:56.671Z,11.83
2022-10-13T23:19:59.608Z,13.20
2022-10-13T23:23:02.571Z,14.07
2022-10-13T23:26:08.171Z,13.37
2022-10-13T23:29:11.317Z,13.67
2022-10-13T23:32:14.312Z,14.40
2022-10-13T23:35:17.428Z,13.97
2022-10-13T23:38:20.425Z,12.77
2022-10-13T23:41:24.915Z,13.27
2022-10-13T23:44:27.850Z,13.77
2022-10-13T23:47:30.821Z,14.33
2022-10-13T23:50:33.798Z,14.00
2022-10-13T23:53:37.108Z,14.30
2022-10-13T23:56:41.429Z,14.43
2022-10-13T23:59:44.384Z,14.53
